createdAt,value
2022-10-12T00:01:55.968Z,10.24
2022-10-12T00:04:30.410Z,10.22
2022-10-12T00:07:05.165Z,10.18
2022-10-12T00:09:37.807Z,10.21
2022-10-12T00:12:10.508Z,10.20
2022-10-12T00:14:43.603Z,10.10
2022-10-12T00:17:16.218Z,10.08
2022-10-12T00:19:51.256Z,10.06
2022-10-12T00:22:23.217Z,10.06
2022-10-12T00:25:01.332Z,10.06
2022-10-12T00:27:35.120Z,10.06
2022-10-12T00:30:10.592Z,10.01
2022-10-12T00:32:42.547Z,10.00
2022-10-12T00:35:15.815Z,9.98
2022-10-12T00:37:50.395Z,9.96
2022-10-12T00:40:22.730Z,9.90
2022-10-12T00:42:55.433Z,9.85
2022-10-12T00:45:29.579Z,9.76
2022-10-12T00:48:03.227Z,9.80
2022-10-12T00:50:36.718Z,9.81
2022-10-12T00:53:13.135Z,9.82
2022-10-12T00:55:49.167Z,9.76
2022-10-12T00:58:21.394Z,9.70
2022-10-12T01:00:53.759Z,9.68
2022-10-12T01:03:28.147Z,9.65
2022-10-12T01:06:01.170Z,9.61
2022-10-12T01:08:34.557Z,9.62
2022-10-12T01:11:07.699Z,9.64
2022-10-12T01:13:39.802Z,9.64
2022-10-12T01:16:17.985Z,9.61
2022-10-12T01:18:54.690Z,9.59
2022-10-12T01:21:27.048Z,9.59
2022-10-12T01:24:31.909Z,9.62
2022-10-12T01:27:36.467Z,9.61
2022-10-12T01:30:14.263Z,9.53
2022-10-12T01:33:09.755Z,9.48
2022-10-12T01:35:47.574Z,9.46
2022-10-12T01:38:29.002Z,9.45
2022-10-12T01:41:04.386Z,9.40
2022-10-12T01:43:41.138Z,9.38
2022-10-12T01:46:53.428Z,9.38
2022-10-12T01:49:29.045Z,9.34
2022-10-12T01:52:18.012Z,9.31
2022-10-12T01:55:00.136Z,9.27
2022-10-12T01:57:37.289Z,9.25
2022-10-12T02:00:13.679Z,9.26
2022-10-12T02:02:52.058Z,9.26
2022-10-12T02:05:31.749Z,9.24
2022-10-12T02:08:07.155Z,9.23
2022-10-12T02:10:45.903Z,9.23
2022-10-12T02:13:19.961Z,9.23
2022-10-12T02:15:52.786Z,9.21
2022-10-12T02:18:28.801Z,9.19
2022-10-12T02:21:02.707Z,9.15
2022-10-12T02:23:37.731Z,9.15
2022-10-12T02:26:13.389Z,9.10
2022-10-12T02:28:47.042Z,9.11
2022-10-12T02:31:27.233Z,9.12
2022-10-12T02:34:05.006Z,9.12
2022-10-12T02:36:43.821Z,9.10
2022-10-12T02:39:21.207Z,9.07
2022-10-12T02:41:56.518Z,9.05
2022-10-12T02:44:32.308Z,9.05
2022-10-12T02:47:06.950Z,9.07
2022-10-12T02:49:39.507Z,9.05
2022-10-12T02:52:12.652Z,9.06
2022-10-12T02:54:48.225Z,9.07
2022-10-12T02:57:21.312Z,9.07
2022-10-12T02:59:57.295Z,9.04
2022-10-12T03:02:30.516Z,8.91
2022-10-12T03:05:04.389Z,8.77
2022-10-12T03:07:39.974Z,8.74
2022-10-12T03:10:16.214Z,8.71
2022-10-12T03:12:50.375Z,8.71
2022-10-12T03:15:25.285Z,8.64
2022-10-12T03:17:57.757Z,8.63
2022-10-12T03:20:31.398Z,8.61
2022-10-12T03:23:07.424Z,8.80
2022-10-12T03:25:41.332Z,8.80
2022-10-12T03:28:13.590Z,8.78
2022-10-12T03:30:47.865Z,8.79
2022-10-12T03:33:21.383Z,8.77
2022-10-12T03:35:54.551Z,8.71
2022-10-12T03:38:27.463Z,8.59
2022-10-12T03:41:05.697Z,8.59
2022-10-12T03:43:40.747Z,8.55
2022-10-12T03:46:14.132Z,8.52
2022-10-12T03:48:48.230Z,8.51
2022-10-12T03:51:23.106Z,8.50
2022-10-12T03:53:55.712Z,8.52
2022-10-12T03:56:28.023Z,8.50
2022-10-12T03:59:00.884Z,8.52
2022-10-12T04:01:35.772Z,8.50
2022-10-12T04:04:09.147Z,8.54
2022-10-12T04:06:44.971Z,8.56
2022-10-12T04:09:19.630Z,8.43
2022-10-12T04:11:55.167Z,8.32
2022-10-12T04:14:27.306Z,8.28
2022-10-12T04:17:03.471Z,8.26
2022-10-12T04:19:37.376Z,8.27
2022-10-12T04:22:12.512Z,8.48
2022-10-12T04:24:44.305Z,8.52
2022-10-12T04:27:16.135Z,8.56
2022-10-12T04:29:49.877Z,8.55
2022-10-12T04:32:23.233Z,8.54
2022-10-12T04:35:01.856Z,8.54
2022-10-12T04:37:34.457Z,8.51
2022-10-12T04:40:07.939Z,8.49
2022-10-12T04:42:43.646Z,8.50
2022-10-12T04:45:16.668Z,8.50
2022-10-12T04:47:51.228Z,8.49
2022-10-12T04:50:27.499Z,8.51
2022-10-12T04:53:02.032Z,8.55
2022-10-12T04:55:34.767Z,8.59
2022-10-12T04:58:06.689Z,8.59
2022-10-12T05:00:39.404Z,8.58
2022-10-12T05:03:13.285Z,8.59
2022-10-12T05:05:47.489Z,8.60
2022-10-12T05:08:21.874Z,8.61
2022-10-12T05:10:56.431Z,8.60
2022-10-12T05:13:29.050Z,8.61
2022-10-12T05:16:02.340Z,8.61
2022-10-12T05:18:34.605Z,8.67
2022-10-12T05:21:08.972Z,8.69
2022-10-12T05:23:40.998Z,8.71
2022-10-12T05:26:16.058Z,8.72
2022-10-12T05:28:48.499Z,8.73
2022-10-12T05:31:24.517Z,8.79
2022-10-12T05:33:57.799Z,8.87
2022-10-12T05:36:30.338Z,8.91
2022-10-12T05:39:03.653Z,8.96
2022-10-12T05:41:37.841Z,9.00
2022-10-12T05:44:11.961Z,9.04
2022-10-12T05:46:46.625Z,9.08
2022-10-12T05:49:19.353Z,9.19
2022-10-12T05:51:54.522Z,9.30
2022-10-12T05:54:28.371Z,9.41
2022-10-12T05:57:00.750Z,9.49
2022-10-12T05:59:33.446Z,9.61
2022-10-12T06:02:07.376Z,9.70
2022-10-12T06:04:40.888Z,9.78
2022-10-12T06:07:13.442Z,9.66
2022-10-12T06:09:48.511Z,9.63
2022-10-12T06:12:20.811Z,9.64
2022-10-12T06:14:54.323Z,9.67
2022-10-12T06:17:29.193Z,9.71
2022-10-12T06:20:04.233Z,9.79
2022-10-12T06:22:37.730Z,9.87
2022-10-12T06:25:11.255Z,9.97
2022-10-12T06:27:44.084Z,10.01
2022-10-12T06:30:16.278Z,10.12
2022-10-12T06:32:51.565Z,10.42
2022-10-12T06:35:23.785Z,10.55
2022-10-12T06:37:56.603Z,10.64
2022-10-12T06:40:32.242Z,10.63
2022-10-12T06:43:05.036Z,10.67
2022-10-12T06:45:39.776Z,10.81
2022-10-12T06:48:18.586Z,11.04
2022-10-12T06:50:54.589Z,11.15
2022-10-12T06:53:31.374Z,11.32
2022-10-12T06:56:04.193Z,11.44
2022-10-12T06:58:38.388Z,11.57
2022-10-12T07:01:12.434Z,11.71
2022-10-12T07:03:44.380Z,11.85
2022-10-12T07:06:16.833Z,11.94
2022-10-12T07:08:49.179Z,11.99
2022-10-12T07:11:21.168Z,11.93
2022-10-12T07:13:54.162Z,12.06
2022-10-12T07:16:28.725Z,12.19
2022-10-12T07:19:01.815Z,12.31
2022-10-12T07:21:34.989Z,12.41
2022-10-12T07:24:09.627Z,12.45
2022-10-12T07:26:43.714Z,12.57
2022-10-12T07:29:20.010Z,12.70
2022-10-12T07:31:53.190Z,12.78
2022-10-12T07:34:31.050Z,12.86
2022-10-12T07:37:03.699Z,12.99
2022-10-12T07:39:37.054Z,13.14
2022-10-12T07:42:16.855Z,13.47
2022-10-12T07:44:54.180Z,13.68
2022-10-12T07:47:54.088Z,13.71
2022-10-12T07:50:31.067Z,13.76
2022-10-12T07:53:07.459Z,13.80
2022-10-12T07:55:45.379Z,13.89
2022-10-12T07:58:19.878Z,14.00
2022-10-12T08:00:53.738Z,14.16
2022-10-12T08:03:27.897Z,14.33
2022-10-12T08:06:04.212Z,14.41
2022-10-12T08:08:40.024Z,14.49
2022-10-12T08:11:41.993Z,14.59
2022-10-12T08:14:21.687Z,14.76
2022-10-12T08:16:59.051Z,14.90
2022-10-12T08:19:40.506Z,14.97
2022-10-12T08:22:18.738Z,15.09
2022-10-12T08:24:57.012Z,15.30
2022-10-12T08:27:34.382Z,15.51
2022-10-12T08:30:13.743Z,15.71
2022-10-12T08:32:46.792Z,15.87
2022-10-12T08:35:22.501Z,16.04
2022-10-12T08:37:56.035Z,16.21
2022-10-12T08:40:35.645Z,16.37
2022-10-12T08:43:20.599Z,16.51
2022-10-12T08:45:59.061Z,16.74
2022-10-12T08:49:03.810Z,16.84
2022-10-12T08:51:49.113Z,17.04
2022-10-12T08:54:32.952Z,17.21
2022-10-12T08:57:15.495Z,17.32
2022-10-12T08:59:52.967Z,17.47
2022-10-12T09:02:46.407Z,17.61
2022-10-12T09:05:49.703Z,17.72
2022-10-12T09:08:38.858Z,17.86
2022-10-12T09:11:32.568Z,17.90
2022-10-12T09:14:32.977Z,17.98
2022-10-12T09:24:26.293Z,18.38
2022-10-12T09:27:30.681Z,18.46
2022-10-12T09:30:09.402Z,18.53
2022-10-12T09:33:09.623Z,18.53
2022-10-12T09:35:52.127Z,18.63
2022-10-12T09:42:15.438Z,18.77
2022-10-12T09:44:55.413Z,18.86
2022-10-12T09:50:46.837Z,19.08
2022-10-12T09:53:35.318Z,19.19
2022-10-12T09:56:38.062Z,19.39
2022-10-12T10:02:58.125Z,19.48
2022-10-12T10:05:35.113Z,19.51
2022-10-12T10:14:48.984Z,20.01
2022-10-12T10:17:57.747Z,20.09
2022-10-12T10:21:00.088Z,20.25
2022-10-12T10:24:03.938Z,20.40
2022-10-12T10:27:24.086Z,20.62
2022-10-12T10:30:29.613Z,20.87
2022-10-12T10:33:28.219Z,21.04
2022-10-12T10:36:46.981Z,21.32
2022-10-12T10:39:29.934Z,21.47
2022-10-12T10:42:21.228Z,21.51
2022-10-12T10:45:03.158Z,21.45
2022-10-12T10:47:51.506Z,21.32
2022-10-12T10:50:37.591Z,21.30
2022-10-12T10:53:19.438Z,21.26
2022-10-12T10:56:00.206Z,21.23
2022-10-12T10:58:40.067Z,21.31
2022-10-12T11:01:45.738Z,21.33
2022-10-12T11:04:48.570Z,21.31
2022-10-12T11:07:32.720Z,21.29
2022-10-12T11:10:24.798Z,21.25
2022-10-12T11:13:06.540Z,21.22
2022-10-12T11:19:00.837Z,21.28
2022-10-12T11:21:51.936Z,21.32
2022-10-12T11:24:33.004Z,21.40
2022-10-12T11:27:18.802Z,21.49
2022-10-12T11:30:09.448Z,21.71
2022-10-12T11:32:48.151Z,21.95
2022-10-12T11:35:31.103Z,22.13
2022-10-12T11:38:06.574Z,22.28
2022-10-12T11:43:45.043Z,22.75
2022-10-12T11:46:29.945Z,22.92
2022-10-12T11:49:32.776Z,23.19
2022-10-12T11:52:12.514Z,23.51
2022-10-12T11:54:56.458Z,23.51
2022-10-12T11:57:53.451Z,23.54
2022-10-12T12:00:59.006Z,23.70
2022-10-12T12:03:41.346Z,23.70
2022-10-12T12:10:53.724Z,23.99
2022-10-12T12:13:56.997Z,24.30
2022-10-12T12:16:50.274Z,24.64
2022-10-12T12:20:16.318Z,24.90
2022-10-12T12:22:58.917Z,25.20
2022-10-12T12:26:04.435Z,25.21
2022-10-12T12:29:05.350Z,25.29
2022-10-12T12:31:44.347Z,25.24
2022-10-12T12:34:19.354Z,24.81
2022-10-12T12:51:45.197Z,24.24
2022-10-12T12:54:33.897Z,24.47
2022-10-12T13:01:00.821Z,25.32
2022-10-12T13:08:22.049Z,25.81
2022-10-12T13:15:24.039Z,26.21
2022-10-12T13:18:45.785Z,26.46
2022-10-12T13:21:26.484Z,26.42
2022-10-12T13:24:18.482Z,26.27
2022-10-12T13:27:41.378Z,25.98
2022-10-12T13:30:28.838Z,25.62
2022-10-12T13:33:17.586Z,25.30
2022-10-12T13:36:05.783Z,24.72
2022-10-12T13:39:49.861Z,24.23
2022-10-12T13:42:30.018Z,24.02
2022-10-12T13:51:38.057Z,22.81
2022-10-12T13:54:40.110Z,22.50
2022-10-12T13:57:24.060Z,22.57
2022-10-12T14:00:29.210Z,22.52
2022-10-12T14:06:42.887Z,22.43
2022-10-12T14:09:23.103Z,22.44
2022-10-12T14:12:04.189Z,22.33
2022-10-12T14:14:47.120Z,22.16
2022-10-12T14:17:29.235Z,22.12
2022-10-12T14:20:24.004Z,22.14
2022-10-12T14:23:02.352Z,22.21
2022-10-12T14:26:01.155Z,22.26
2022-10-12T14:28:38.551Z,22.37
2022-10-12T14:31:12.019Z,22.33
2022-10-12T14:33:50.199Z,22.10
2022-10-12T14:36:30.781Z,22.06
2022-10-12T14:39:30.961Z,22.02
2022-10-12T14:45:29.670Z,21.63
2022-10-12T14:48:14.363Z,21.30
2022-10-12T14:50:52.813Z,21.21
2022-10-12T14:57:33.319Z,21.10
2022-10-12T15:00:38.333Z,21.28
2022-10-12T15:03:20.212Z,21.36
2022-10-12T15:05:56.985Z,21.40
2022-10-12T15:08:32.856Z,21.25
2022-10-12T15:11:42.706Z,21.03
2022-10-12T15:14:51.903Z,20.78
2022-10-12T15:17:25.665Z,20.61
2022-10-12T15:20:08.614Z,20.45
2022-10-12T15:23:08.111Z,20.28
2022-10-12T15:26:19.610Z,20.07
2022-10-12T15:33:31.567Z,19.46
2022-10-12T15:40:00.502Z,19.04
2022-10-12T15:42:40.054Z,18.83
2022-10-12T15:46:02.936Z,18.63
2022-10-12T15:49:01.382Z,18.45
2022-10-12T15:54:48.948Z,18.25
2022-10-12T15:57:24.845Z,18.09
2022-10-12T16:00:24.127Z,17.99
2022-10-12T16:03:26.415Z,17.92
2022-10-12T16:10:20.318Z,17.59
2022-10-12T16:12:58.082Z,17.49
2022-10-12T16:16:00.695Z,17.53
2022-10-12T16:18:47.891Z,17.33
2022-10-12T16:21:53.745Z,17.12
2022-10-12T16:24:30.337Z,17.01
2022-10-12T16:27:57.867Z,16.93
2022-10-12T16:30:30.954Z,16.79
2022-10-12T16:33:29.323Z,16.70
2022-10-12T16:43:17.134Z,16.46
2022-10-12T16:46:02.945Z,16.35
2022-10-12T16:48:40.990Z,16.26
2022-10-12T16:51:19.759Z,16.19
2022-10-12T16:57:40.369Z,16.09
2022-10-12T17:00:22.597Z,16.04
2022-10-12T17:03:42.268Z,15.98
2022-10-12T17:06:21.360Z,15.86
2022-10-12T17:08:58.991Z,15.81
2022-10-12T17:12:00.757Z,15.75
2022-10-12T17:14:41.397Z,15.69
2022-10-12T17:18:02.010Z,15.63
2022-10-12T17:20:37.167Z,15.55
2022-10-12T17:23:41.807Z,15.47
2022-10-12T17:27:08.917Z,15.35
2022-10-12T17:30:15.021Z,15.26
2022-10-12T17:32:54.160Z,15.19
2022-10-12T17:35:28.604Z,15.16
2022-10-12T17:38:30.028Z,15.10
2022-10-12T17:44:56.974Z,14.97
2022-10-12T17:47:31.161Z,14.95
2022-10-12T17:50:04.328Z,14.90
2022-10-12T17:52:42.359Z,14.85
2022-10-12T17:55:43.371Z,14.76
2022-10-12T18:05:05.110Z,14.56
2022-10-12T18:07:42.120Z,14.52
2022-10-12T18:11:31.318Z,14.49
2022-10-12T18:14:58.960Z,14.44
2022-10-12T18:17:34.596Z,14.37
2022-10-12T18:20:14.011Z,14.32
2022-10-12T18:27:23.392Z,14.26
2022-10-12T18:30:25.593Z,13.95
2022-10-12T18:33:04.052Z,13.85
2022-10-12T18:35:43.489Z,13.78
2022-10-12T18:42:03.767Z,13.75
2022-10-12T18:45:29.561Z,13.62
2022-10-12T18:48:08.401Z,13.53
2022-10-12T18:51:11.795Z,13.46
2022-10-12T18:53:54.438Z,13.39
2022-10-12T18:56:37.573Z,13.47
2022-10-12T18:59:13.203Z,13.29
2022-10-12T19:01:50.694Z,13.25
2022-10-12T19:04:26.869Z,13.25
2022-10-12T19:07:28.173Z,13.18
2022-10-12T19:11:15.085Z,13.15
2022-10-12T19:14:40.532Z,13.06
2022-10-12T19:17:38.495Z,13.19
2022-10-12T19:20:40.047Z,13.09
2022-10-12T19:23:21.402Z,12.89
2022-10-12T19:33:28.490Z,12.65
2022-10-12T19:36:40.816Z,12.59
2022-10-12T19:40:07.649Z,12.50
2022-10-12T19:42:43.402Z,12.54
2022-10-12T19:45:25.079Z,12.40
2022-10-12T19:51:26.214Z,12.31
2022-10-12T19:57:38.802Z,12.18
2022-10-12T20:00:27.028Z,12.27
2022-10-12T20:03:02.445Z,12.26
2022-10-12T20:05:39.952Z,12.23
2022-10-12T20:09:09.188Z,12.26
2022-10-12T20:11:50.619Z,12.13
2022-10-12T20:14:53.539Z,12.04
2022-10-12T20:17:50.467Z,12.05
2022-10-12T20:20:27.231Z,12.16
2022-10-12T20:23:02.319Z,12.17
2022-10-12T20:26:01.598Z,12.18
2022-10-12T20:32:45.233Z,12.08
2022-10-12T20:35:19.812Z,12.00
2022-10-12T20:38:18.095Z,11.94
2022-10-12T20:45:17.101Z,11.84
2022-10-12T20:47:52.954Z,11.74
2022-10-12T20:54:07.333Z,11.64
2022-10-12T21:09:19.895Z,11.17
2022-10-12T21:11:56.291Z,11.11
2022-10-12T21:14:58.792Z,11.10
2022-10-12T21:17:57.837Z,11.25
2022-10-12T21:20:38.714Z,11.21
2022-10-12T21:24:25.253Z,11.18
2022-10-12T21:27:51.065Z,11.16
2022-10-12T21:30:24.410Z,11.12
2022-10-12T21:32:59.925Z,11.09
2022-10-12T21:35:34.654Z,11.04
2022-10-12T21:38:35.591Z,11.04
2022-10-12T21:41:59.288Z,10.98
2022-10-12T21:45:07.146Z,10.96
2022-10-12T21:47:43.130Z,10.91
2022-10-12T21:51:29.228Z,10.88
2022-10-12T21:54:29.425Z,10.81
2022-10-12T21:57:04.951Z,10.78
2022-10-12T22:00:09.124Z,10.77
2022-10-12T22:02:47.406Z,10.72
2022-10-12T22:05:25.493Z,10.70
2022-10-12T22:11:50.025Z,10.67
2022-10-12T22:14:24.987Z,10.65
2022-10-12T22:17:47.031Z,10.63
2022-10-12T22:21:07.805Z,10.61
2022-10-12T22:23:42.410Z,10.59
2022-10-12T22:26:23.388Z,10.56
2022-10-12T22:29:07.065Z,10.55
2022-10-12T22:31:47.955Z,10.55
2022-10-12T22:34:26.765Z,10.56
2022-10-12T22:44:03.420Z,10.49
2022-10-12T22:46:40.372Z,10.48
2022-10-12T22:50:03.461Z,10.50
2022-10-12T22:53:04.789Z,10.46
2022-10-12T22:56:05.621Z,10.43
2022-10-12T22:58:49.073Z,10.39
2022-10-12T23:01:27.110Z,10.38
2022-10-12T23:03:59.984Z,10.38
2022-10-12T23:10:44.936Z,10.30
2022-10-12T23:13:44.422Z,10.27
2022-10-12T23:16:25.239Z,10.22
2022-10-12T23:19:04.998Z,10.17
2022-10-12T23:21:39.334Z,10.15
2022-10-12T23:24:13.094Z,10.14
2022-10-12T23:26:51.917Z,10.15
2022-10-12T23:29:29.706Z,10.13
2022-10-12T23:32:11.220Z,10.14
2022-10-12T23:34:48.174Z,10.12
2022-10-12T23:38:16.695Z,10.10
2022-10-12T23:40:51.000Z,10.07
2022-10-12T23:43:54.619Z,10.03
2022-10-12T23:50:48.925Z,9.90
2022-10-12T23:53:23.733Z,9.87
2022-10-12T23:56:22.004Z,9.84
